Main page
METAR-TAF:

METAR-TAF

Airports :

Dubai International Airport

Dubai, United Arab Emirates

latitude: 25-15-10N, longitude: 055-21-52E, elevation: 8 m

Current weather observation

The report was made 10 minutes ago, at 03:00 UTC
Wind 5 kt from the South, varying between South/Southeast and Southwest
Temperature 29°C
Humidity 79%
Pressure 1001 hPa
Visibility: 6000 m

METAR: OMDB 240300Z 18005KT 160V230 6000 NSC 29/25 Q1001 NOSIG

Time: 07:10 (03:10 UTC)

Forecast

The report was made 4 hours and 17 minutes ago, at 22:53 UTC
Forecast valid from 24 at 00 UTC to 25 at 06 UTC
Wind 5 kt from the South/Southwest
Visibility: 8000 m
Becoming
from 24 at 05 UTC to 24 at 07 UTC
Wind 12 kt from the West
Becoming
from 24 at 18 UTC to 24 at 20 UTC
Wind 5 kt from the South
Becoming
from 25 at 05 UTC to 25 at 06 UTC
Wind 10 kt from the West

TAF: OMDB 232253Z 2400/2506 20005KT 8000 NSC BECMG 2405/2407 28012KT BECMG 2418/2420 18005KT BECMG 2505/2506 28010KT

Weather observations and forecasts of more than 4000 airports (METAR and TAF reports).

The available stations are represented by yellow and red dots on the map.

Hover mouse over dot to see the name of the station.

Then click to see weather observations and forecasts.

To change the map : click on the green buttons with a black cross to zoom in, on the green button with a dash to zoom out, or on the green arrows for adjacent maps.


METAR-TAF: